createdAt,value
2022-10-10T00:02:14.418Z,12.00
2022-10-10T00:04:49.391Z,12.00
2022-10-10T00:07:24.244Z,12.00
2022-10-10T00:09:59.146Z,12.00
2022-10-10T00:12:34.099Z,12.00
2022-10-10T00:15:12.314Z,12.00
2022-10-10T00:17:47.322Z,12.10
2022-10-10T00:20:22.407Z,12.10
2022-10-10T00:22:57.297Z,12.10
2022-10-10T00:25:32.172Z,12.10
2022-10-10T00:28:07.063Z,12.10
2022-10-10T00:30:42.290Z,12.10
2022-10-10T00:33:17.256Z,12.10
2022-10-10T00:35:52.129Z,12.10
2022-10-10T00:38:27.055Z,12.10
2022-10-10T00:41:02.510Z,12.20
2022-10-10T00:43:37.529Z,12.20
2022-10-10T00:46:12.404Z,12.10
2022-10-10T00:48:47.379Z,12.10
2022-10-10T00:51:22.276Z,12.10
2022-10-10T00:54:03.041Z,12.10
2022-10-10T00:56:52.658Z,12.10
2022-10-10T00:59:31.896Z,12.10
2022-10-10T01:02:07.581Z,12.10
2022-10-10T01:04:45.590Z,12.20
2022-10-10T01:07:27.809Z,12.20
2022-10-10T01:10:14.647Z,12.20
2022-10-10T01:13:31.494Z,12.20
2022-10-10T01:16:25.360Z,12.20
2022-10-10T01:19:49.318Z,12.20
2022-10-10T01:22:39.713Z,12.20
2022-10-10T01:26:12.766Z,12.20
2022-10-10T01:28:59.718Z,12.20
2022-10-10T01:31:40.865Z,12.20
2022-10-10T01:34:47.541Z,12.20
2022-10-10T01:37:55.364Z,12.30
2022-10-10T01:40:46.888Z,12.20
2022-10-10T01:43:24.464Z,12.20
2022-10-10T01:45:59.375Z,12.20
2022-10-10T01:48:34.228Z,12.20
2022-10-10T01:51:27.453Z,12.20
2022-10-10T01:54:57.988Z,12.20
2022-10-10T01:57:52.337Z,12.20
2022-10-10T02:00:27.338Z,12.20
2022-10-10T02:03:12.674Z,12.20
2022-10-10T02:06:15.230Z,12.20
2022-10-10T02:08:57.640Z,12.20
2022-10-10T02:11:38.218Z,12.20
2022-10-10T02:14:22.831Z,12.20
2022-10-10T02:17:00.576Z,12.20
2022-10-10T02:19:36.145Z,12.10
2022-10-10T02:22:11.092Z,12.10
2022-10-10T02:24:45.938Z,12.10
2022-10-10T02:27:38.153Z,12.10
2022-10-10T02:30:14.347Z,12.10
2022-10-10T02:33:01.189Z,12.10
2022-10-10T02:35:41.716Z,12.10
2022-10-10T02:38:18.062Z,12.10
2022-10-10T02:40:54.740Z,12.10
2022-10-10T02:43:34.493Z,12.00
2022-10-10T02:46:13.037Z,12.00
2022-10-10T02:48:48.015Z,12.00
2022-10-10T02:51:23.127Z,12.00
2022-10-10T02:53:57.956Z,12.00
2022-10-10T02:56:32.909Z,12.00
2022-10-10T02:59:07.724Z,11.90
2022-10-10T03:01:42.545Z,11.90
2022-10-10T03:04:17.538Z,11.90
2022-10-10T03:06:53.672Z,11.90
2022-10-10T03:09:28.622Z,11.90
2022-10-10T03:12:03.853Z,11.90
2022-10-10T03:14:38.734Z,11.80
2022-10-10T03:17:14.191Z,11.80
2022-10-10T03:19:49.019Z,11.80
2022-10-10T03:22:23.849Z,11.80
2022-10-10T03:24:58.674Z,11.80
2022-10-10T03:27:33.550Z,11.80
2022-10-10T03:30:09.034Z,11.70
2022-10-10T03:32:43.993Z,11.70
2022-10-10T03:35:18.859Z,11.70
2022-10-10T03:37:53.801Z,11.70
2022-10-10T03:40:29.446Z,11.60
2022-10-10T03:43:04.291Z,11.60
2022-10-10T03:45:43.428Z,11.60
2022-10-10T03:48:18.775Z,11.60
2022-10-10T03:50:53.612Z,11.60
2022-10-10T03:53:28.437Z,11.60
2022-10-10T03:56:03.510Z,11.60
2022-10-10T03:58:38.493Z,11.60
2022-10-10T04:01:13.551Z,11.60
2022-10-10T04:03:52.034Z,11.60
2022-10-10T04:06:28.267Z,11.60
2022-10-10T04:09:04.429Z,11.60
2022-10-10T04:11:40.856Z,11.60
2022-10-10T04:14:15.848Z,11.50
2022-10-10T04:16:50.738Z,11.50
2022-10-10T04:19:25.810Z,11.50
2022-10-10T04:22:00.712Z,11.50
2022-10-10T04:24:35.720Z,11.50
2022-10-10T04:27:11.707Z,11.50
2022-10-10T04:29:46.633Z,11.50
2022-10-10T04:32:21.596Z,11.40
2022-10-10T04:34:56.598Z,11.40
2022-10-10T04:37:31.713Z,11.40
2022-10-10T04:40:07.591Z,11.40
2022-10-10T04:42:43.036Z,11.40
2022-10-10T04:45:18.148Z,11.40
2022-10-10T04:47:54.506Z,11.40
2022-10-10T04:50:29.443Z,11.30
2022-10-10T04:53:04.639Z,11.30
2022-10-10T04:55:39.536Z,11.30
2022-10-10T04:58:15.048Z,11.20
2022-10-10T05:00:55.048Z,11.20
2022-10-10T05:03:30.457Z,11.20
2022-10-10T05:06:08.221Z,11.20
2022-10-10T05:08:43.113Z,11.20
2022-10-10T05:11:18.212Z,11.20
2022-10-10T05:13:53.144Z,11.20
2022-10-10T05:16:28.021Z,11.20
2022-10-10T05:19:02.998Z,11.20
2022-10-10T05:21:37.935Z,11.20
2022-10-10T05:24:12.897Z,11.20
2022-10-10T05:26:47.863Z,11.30
2022-10-10T05:29:22.877Z,11.30
2022-10-10T05:31:57.806Z,11.30
2022-10-10T05:34:32.739Z,11.30
2022-10-10T05:37:07.712Z,11.40
2022-10-10T05:39:42.626Z,11.40
2022-10-10T05:42:17.607Z,11.30
2022-10-10T05:44:52.521Z,11.30
2022-10-10T05:47:28.196Z,11.40
2022-10-10T05:50:04.023Z,11.40
2022-10-10T05:52:38.919Z,11.30
2022-10-10T05:55:13.853Z,11.30
2022-10-10T05:57:48.870Z,11.30
2022-10-10T06:00:24.012Z,11.30
2022-10-10T06:02:59.114Z,11.30
2022-10-10T06:05:34.315Z,11.40
2022-10-10T06:08:12.046Z,11.40
2022-10-10T06:10:47.515Z,11.40
2022-10-10T06:13:24.485Z,11.40
2022-10-10T06:15:59.528Z,11.40
2022-10-10T06:18:34.538Z,11.50
2022-10-10T06:21:10.812Z,11.50
2022-10-10T06:23:45.957Z,11.60
2022-10-10T06:26:20.902Z,11.70
2022-10-10T06:28:55.884Z,11.70
2022-10-10T06:31:31.807Z,11.80
2022-10-10T06:34:07.095Z,11.90
2022-10-10T06:36:41.986Z,11.90
2022-10-10T06:39:17.050Z,12.00
2022-10-10T06:41:51.964Z,12.10
2022-10-10T06:44:27.183Z,12.10
2022-10-10T06:47:02.055Z,12.20
2022-10-10T06:49:37.163Z,12.30
2022-10-10T06:52:12.090Z,12.30
2022-10-10T06:54:46.935Z,12.50
2022-10-10T06:57:21.767Z,12.60
2022-10-10T06:59:56.672Z,12.60
2022-10-10T07:02:31.642Z,12.60
2022-10-10T07:05:17.903Z,12.70
2022-10-10T07:07:53.199Z,12.80
2022-10-10T07:10:28.162Z,12.80
2022-10-10T07:13:03.147Z,12.80
2022-10-10T07:15:38.108Z,12.80
2022-10-10T07:18:13.616Z,12.90
2022-10-10T07:20:49.580Z,12.90
2022-10-10T07:23:25.344Z,12.80
2022-10-10T07:26:07.948Z,12.80
2022-10-10T07:28:42.912Z,12.90
2022-10-10T07:31:18.048Z,12.80
2022-10-10T07:33:53.003Z,12.80
2022-10-10T07:36:27.916Z,12.80
2022-10-10T07:39:03.489Z,13.00
2022-10-10T07:41:38.385Z,13.00
2022-10-10T07:44:13.391Z,13.10
2022-10-10T07:46:48.391Z,13.10
2022-10-10T07:49:23.329Z,13.20
2022-10-10T07:51:59.058Z,13.30
2022-10-10T07:54:36.390Z,13.30
2022-10-10T07:57:11.347Z,13.50
2022-10-10T07:59:46.238Z,13.70
2022-10-10T08:02:21.193Z,13.90
2022-10-10T08:04:56.131Z,14.10
2022-10-10T08:07:31.140Z,14.30
2022-10-10T08:10:08.237Z,14.50
2022-10-10T08:12:44.282Z,14.70
2022-10-10T08:15:19.235Z,14.80
2022-10-10T08:17:54.408Z,14.90
2022-10-10T08:20:29.350Z,15.00
2022-10-10T08:23:04.226Z,14.90
2022-10-10T08:25:39.193Z,15.00
2022-10-10T08:28:14.067Z,15.00
2022-10-10T08:30:49.098Z,15.10
2022-10-10T08:33:28.766Z,15.20
2022-10-10T08:36:13.060Z,15.10
2022-10-10T08:38:48.895Z,15.20
2022-10-10T08:41:57.252Z,15.10
2022-10-10T08:44:47.628Z,15.10
2022-10-10T08:47:31.292Z,15.20
2022-10-10T08:50:35.724Z,15.30
2022-10-10T08:53:43.842Z,15.30
2022-10-10T08:56:29.366Z,15.50
2022-10-10T08:59:30.272Z,15.60
2022-10-10T09:05:41.429Z,15.90
2022-10-10T09:08:36.241Z,16.10
2022-10-10T09:11:41.344Z,16.30
2022-10-10T09:14:36.797Z,16.40
2022-10-10T09:17:39.110Z,16.60
2022-10-10T09:20:36.966Z,16.70
2022-10-10T09:23:35.580Z,17.00
2022-10-10T09:26:16.537Z,17.30
2022-10-10T09:29:21.666Z,17.50
2022-10-10T09:32:18.965Z,17.50
2022-10-10T09:35:21.027Z,17.30
2022-10-10T09:38:09.282Z,17.30
2022-10-10T09:40:52.486Z,17.40
2022-10-10T09:43:32.741Z,17.60
2022-10-10T09:46:08.063Z,17.90
2022-10-10T09:48:43.819Z,18.10
2022-10-10T09:51:20.145Z,18.40
2022-10-10T09:53:55.126Z,18.60
2022-10-10T09:56:38.842Z,18.80
2022-10-10T09:59:41.773Z,19.00
2022-10-10T10:02:27.030Z,19.10
2022-10-10T10:05:27.199Z,19.10
2022-10-10T10:08:02.174Z,19.00
2022-10-10T10:10:38.259Z,19.00
2022-10-10T10:13:26.098Z,19.00
2022-10-10T10:16:09.565Z,19.00
2022-10-10T10:18:46.967Z,19.00
2022-10-10T10:21:24.240Z,19.00
2022-10-10T10:24:21.371Z,19.00
2022-10-10T10:26:56.540Z,18.90
2022-10-10T10:29:33.801Z,18.90
2022-10-10T10:32:42.172Z,18.90
2022-10-10T10:35:40.774Z,18.80
2022-10-10T10:38:50.504Z,19.00
2022-10-10T10:41:51.032Z,19.10
2022-10-10T10:44:28.582Z,19.20
2022-10-10T10:47:14.704Z,19.30
2022-10-10T10:50:16.842Z,19.40
2022-10-10T10:53:21.728Z,19.60
2022-10-10T11:00:25.585Z,19.60
2022-10-10T11:03:14.805Z,19.60
2022-10-10T11:06:23.851Z,19.80
2022-10-10T11:09:49.484Z,19.80
2022-10-10T11:13:09.081Z,20.10
2022-10-10T11:19:32.781Z,20.20
2022-10-10T11:22:20.330Z,20.40
2022-10-10T11:25:29.841Z,20.60
2022-10-10T11:28:18.089Z,20.80
2022-10-10T11:31:06.132Z,20.80
2022-10-10T11:33:48.143Z,21.00
2022-10-10T11:36:27.224Z,21.10
2022-10-10T11:39:27.267Z,21.30
2022-10-10T11:42:40.324Z,21.40
2022-10-10T11:45:56.772Z,21.60
2022-10-10T11:49:13.136Z,21.90
2022-10-10T11:52:33.673Z,22.00
2022-10-10T11:55:23.043Z,22.30
2022-10-10T11:58:07.088Z,22.50
2022-10-10T12:00:50.590Z,22.60
2022-10-10T12:03:26.663Z,22.70
2022-10-10T12:06:32.833Z,23.00
2022-10-10T12:09:30.370Z,23.40
2022-10-10T12:12:13.888Z,23.60
2022-10-10T12:14:55.729Z,23.70
2022-10-10T12:17:38.324Z,24.00
2022-10-10T12:20:25.368Z,24.40
2022-10-10T12:23:15.032Z,24.80
2022-10-10T12:25:50.033Z,25.00
2022-10-10T12:28:33.702Z,25.30
2022-10-10T12:31:08.570Z,25.40
2022-10-10T12:33:44.899Z,25.50
2022-10-10T12:36:19.925Z,25.60
2022-10-10T12:39:08.125Z,25.60
2022-10-10T12:41:47.131Z,25.50
2022-10-10T12:44:45.050Z,25.40
2022-10-10T12:47:52.835Z,25.20
2022-10-10T12:50:41.602Z,24.80
2022-10-10T12:53:19.644Z,24.50
2022-10-10T12:55:58.546Z,24.40
2022-10-10T12:58:38.491Z,24.20
2022-10-10T13:01:28.384Z,23.90
2022-10-10T13:04:03.989Z,23.60
2022-10-10T13:06:42.724Z,23.40
2022-10-10T13:09:25.530Z,23.40
2022-10-10T13:12:04.083Z,23.50
2022-10-10T13:14:45.320Z,23.50
2022-10-10T13:17:30.311Z,23.40
2022-10-10T13:20:06.595Z,23.60
2022-10-10T13:22:45.222Z,23.80
2022-10-10T13:25:23.800Z,24.30
2022-10-10T13:27:58.731Z,24.70
2022-10-10T13:30:33.730Z,24.90
2022-10-10T13:33:18.696Z,25.20
2022-10-10T13:35:53.681Z,25.10
2022-10-10T13:38:28.563Z,25.20
2022-10-10T13:41:05.386Z,25.30
2022-10-10T13:43:41.205Z,25.40
2022-10-10T13:46:30.561Z,25.90
2022-10-10T13:49:25.504Z,25.90
2022-10-10T13:52:22.511Z,26.10
2022-10-10T13:55:25.598Z,26.10
2022-10-10T13:58:01.904Z,26.20
2022-10-10T14:00:38.122Z,26.40
2022-10-10T14:03:17.710Z,26.50
2022-10-10T14:05:53.131Z,26.60
2022-10-10T14:08:33.406Z,26.70
2022-10-10T14:11:16.540Z,26.70
2022-10-10T14:14:01.293Z,26.70
2022-10-10T14:16:36.299Z,26.70
2022-10-10T14:19:21.518Z,26.70
2022-10-10T14:21:56.831Z,26.50
2022-10-10T14:24:31.799Z,26.40
2022-10-10T14:27:27.702Z,26.40
2022-10-10T14:30:02.680Z,26.10
2022-10-10T14:32:37.599Z,26.20
2022-10-10T14:35:13.410Z,26.00
2022-10-10T14:37:48.378Z,26.10
2022-10-10T14:40:23.399Z,26.20
2022-10-10T14:42:58.285Z,26.30
2022-10-10T14:45:33.355Z,26.10
2022-10-10T14:48:08.326Z,25.90
2022-10-10T14:50:46.922Z,25.70
2022-10-10T14:53:21.774Z,25.50
2022-10-10T14:55:56.682Z,25.30
2022-10-10T14:58:31.833Z,25.20
2022-10-10T15:01:06.842Z,25.10
2022-10-10T15:03:41.691Z,25.00
2022-10-10T15:06:16.566Z,24.80
2022-10-10T15:08:51.475Z,24.60
2022-10-10T15:11:26.363Z,24.50
2022-10-10T15:14:01.234Z,24.50
2022-10-10T15:16:36.315Z,24.50
2022-10-10T15:19:11.317Z,24.50
2022-10-10T15:21:46.285Z,24.60
2022-10-10T15:24:22.226Z,24.70
2022-10-10T15:26:57.167Z,24.70
2022-10-10T15:29:32.098Z,24.60
2022-10-10T15:32:07.230Z,24.60
2022-10-10T15:34:42.160Z,24.70
2022-10-10T15:37:18.047Z,24.80
2022-10-10T15:39:52.948Z,24.80
2022-10-10T15:42:28.343Z,24.80
2022-10-10T15:45:03.838Z,24.90
2022-10-10T15:47:45.636Z,24.80
2022-10-10T15:50:24.853Z,24.80
2022-10-10T15:53:01.856Z,24.70
2022-10-10T15:55:47.474Z,24.60
2022-10-10T15:58:22.399Z,24.40
2022-10-10T16:00:57.309Z,24.30
2022-10-10T16:03:32.282Z,24.10
2022-10-10T16:06:08.043Z,24.10
2022-10-10T16:08:46.117Z,24.00
2022-10-10T16:11:23.769Z,23.90
2022-10-10T16:13:58.811Z,23.80
2022-10-10T16:16:33.849Z,23.60
2022-10-10T16:19:09.071Z,23.50
2022-10-10T16:21:44.031Z,23.30
2022-10-10T16:24:19.189Z,23.10
2022-10-10T16:26:54.159Z,23.00
2022-10-10T16:29:29.119Z,22.90
2022-10-10T16:32:04.308Z,22.70
2022-10-10T16:34:39.334Z,22.60
2022-10-10T16:37:14.283Z,22.50
2022-10-10T16:39:49.146Z,22.40
2022-10-10T16:42:24.004Z,22.40
2022-10-10T16:45:00.085Z,22.30
2022-10-10T16:47:35.074Z,22.10
2022-10-10T16:50:10.427Z,22.00
2022-10-10T16:52:45.895Z,21.80
2022-10-10T16:55:20.778Z,21.70
2022-10-10T16:57:59.066Z,21.60
2022-10-10T17:00:34.277Z,21.60
2022-10-10T17:03:09.352Z,21.50
2022-10-10T17:05:44.457Z,21.40
2022-10-10T17:08:20.437Z,21.30
2022-10-10T17:10:56.480Z,21.20
2022-10-10T17:13:32.413Z,21.10
2022-10-10T17:16:53.501Z,21.00
2022-10-10T17:19:11.407Z,20.90
2022-10-10T17:21:46.316Z,20.80
2022-10-10T17:24:21.460Z,20.80
2022-10-10T17:26:56.481Z,20.70
2022-10-10T17:29:31.836Z,20.60
2022-10-10T17:32:07.021Z,20.50
2022-10-10T17:34:41.996Z,20.50
2022-10-10T17:37:17.008Z,20.40
2022-10-10T17:39:52.051Z,20.20
2022-10-10T17:42:27.063Z,20.20
2022-10-10T17:45:02.424Z,20.20
2022-10-10T17:50:36.793Z,20.10
2022-10-10T17:53:11.665Z,20.10
2022-10-10T17:55:46.757Z,20.10
2022-10-10T17:58:22.169Z,20.10
2022-10-10T18:01:04.788Z,20.10
2022-10-10T18:03:39.978Z,20.00
2022-10-10T18:06:18.736Z,20.00
2022-10-10T18:08:55.055Z,19.90
2022-10-10T18:11:31.877Z,19.80
2022-10-10T18:14:09.795Z,19.70
2022-10-10T18:16:45.033Z,19.70
2022-10-10T18:19:20.038Z,19.60
2022-10-10T18:21:54.934Z,19.60
2022-10-10T18:24:30.025Z,19.60
2022-10-10T18:27:04.903Z,19.50
2022-10-10T18:29:40.415Z,19.30
2022-10-10T18:32:15.422Z,19.20
2022-10-10T18:34:50.349Z,19.20
2022-10-10T18:37:25.357Z,19.00
2022-10-10T18:40:00.245Z,18.80
2022-10-10T18:42:36.000Z,18.60
2022-10-10T18:45:11.056Z,18.40
2022-10-10T18:47:46.001Z,18.30
2022-10-10T18:50:21.002Z,18.20
2022-10-10T18:52:57.710Z,18.20
2022-10-10T18:55:36.754Z,18.20
2022-10-10T18:58:11.657Z,18.10
2022-10-10T19:00:46.771Z,18.10
2022-10-10T19:03:21.760Z,18.00
2022-10-10T19:05:56.990Z,17.90
2022-10-10T19:08:33.221Z,17.90
2022-10-10T19:11:18.729Z,17.80
2022-10-10T19:13:53.904Z,17.70
2022-10-10T19:16:29.158Z,17.60
2022-10-10T19:19:04.485Z,17.60
2022-10-10T19:21:40.412Z,17.60
2022-10-10T19:24:20.631Z,17.50
2022-10-10T19:26:56.864Z,17.50
2022-10-10T19:29:32.275Z,17.50
2022-10-10T19:32:07.209Z,17.40
2022-10-10T19:34:43.314Z,17.20
2022-10-10T19:37:20.449Z,16.80
2022-10-10T19:39:55.589Z,16.50
2022-10-10T19:42:30.698Z,16.40
2022-10-10T19:45:05.968Z,16.30
2022-10-10T19:47:40.868Z,16.20
2022-10-10T19:50:15.902Z,16.20
2022-10-10T19:52:51.030Z,16.10
2022-10-10T19:55:26.457Z,16.10
2022-10-10T19:58:01.361Z,16.10
2022-10-10T20:00:37.865Z,16.10
2022-10-10T20:03:12.777Z,16.10
2022-10-10T20:05:47.788Z,16.10
2022-10-10T20:08:22.717Z,16.10
2022-10-10T20:10:58.102Z,16.00
2022-10-10T20:13:33.069Z,15.90
2022-10-10T20:16:10.720Z,15.90
2022-10-10T20:18:47.809Z,15.90
2022-10-10T20:21:32.226Z,15.90
2022-10-10T20:24:10.472Z,15.90
2022-10-10T20:26:45.555Z,15.80
2022-10-10T20:29:20.607Z,15.80
2022-10-10T20:31:55.535Z,15.80
2022-10-10T20:34:30.477Z,15.80
2022-10-10T20:37:06.325Z,15.80
2022-10-10T20:39:41.232Z,15.70
2022-10-10T20:42:16.307Z,15.70
2022-10-10T20:44:51.388Z,15.70
2022-10-10T20:47:26.279Z,15.60
2022-10-10T20:50:01.301Z,15.60
2022-10-10T20:52:36.297Z,15.60
2022-10-10T20:55:11.339Z,15.60
2022-10-10T20:57:46.268Z,15.60
2022-10-10T21:00:21.282Z,15.60
2022-10-10T21:02:56.738Z,15.60
2022-10-10T21:05:31.789Z,15.60
2022-10-10T21:08:06.660Z,15.60
2022-10-10T21:10:43.047Z,15.60
2022-10-10T21:13:18.100Z,15.50
2022-10-10T21:15:54.356Z,15.50
2022-10-10T21:18:29.350Z,15.50
2022-10-10T21:21:06.396Z,15.50
2022-10-10T21:23:44.711Z,15.40
2022-10-10T21:26:22.505Z,15.40
2022-10-10T21:28:59.172Z,15.30
2022-10-10T21:31:39.487Z,15.30
2022-10-10T21:34:18.658Z,15.30
2022-10-10T21:36:53.506Z,15.30
2022-10-10T21:39:28.381Z,15.30
2022-10-10T21:42:03.463Z,15.20
2022-10-10T21:44:38.384Z,15.20
2022-10-10T21:47:13.209Z,15.20
2022-10-10T21:49:48.063Z,15.20
2022-10-10T21:52:22.926Z,15.30
2022-10-10T21:54:58.171Z,15.30
2022-10-10T21:57:33.001Z,15.30
2022-10-10T22:00:09.083Z,15.30
2022-10-10T22:02:45.137Z,15.40
2022-10-10T22:05:19.995Z,15.30
2022-10-10T22:07:54.846Z,15.30
2022-10-10T22:10:29.926Z,15.30
2022-10-10T22:13:04.791Z,15.30
2022-10-10T22:15:39.822Z,15.30
2022-10-10T22:18:14.754Z,15.30
2022-10-10T22:20:50.218Z,15.30
2022-10-10T22:23:25.124Z,15.30
2022-10-10T22:26:00.089Z,15.30
2022-10-10T22:28:35.038Z,15.30
2022-10-10T22:31:14.093Z,15.30
2022-10-10T22:33:48.943Z,15.30
2022-10-10T22:36:23.861Z,15.30
2022-10-10T22:38:58.930Z,15.30
2022-10-10T22:41:33.838Z,15.40
2022-10-10T22:44:08.853Z,15.40
2022-10-10T22:46:44.010Z,15.40
2022-10-10T22:49:18.880Z,15.40
2022-10-10T22:51:53.751Z,15.40
2022-10-10T22:54:28.698Z,15.40
2022-10-10T22:57:03.714Z,15.40
2022-10-10T22:59:38.599Z,15.40
2022-10-10T23:02:13.444Z,15.40
2022-10-10T23:04:48.303Z,15.40
2022-10-10T23:07:23.132Z,15.40
2022-10-10T23:09:58.038Z,15.40
2022-10-10T23:12:32.927Z,15.30
2022-10-10T23:15:08.188Z,15.30
2022-10-10T23:17:43.069Z,15.30
2022-10-10T23:20:18.007Z,15.30
2022-10-10T23:22:54.039Z,15.30
2022-10-10T23:25:29.090Z,15.30
2022-10-10T23:28:04.104Z,15.30
2022-10-10T23:30:40.799Z,15.20
2022-10-10T23:33:17.198Z,15.20
2022-10-10T23:36:05.152Z,15.20
2022-10-10T23:38:41.691Z,15.20
2022-10-10T23:41:16.645Z,15.10
2022-10-10T23:43:51.525Z,15.10
2022-10-10T23:46:26.392Z,15.10
2022-10-10T23:49:01.265Z,15.00
2022-10-10T23:51:36.152Z,15.00
2022-10-10T23:54:11.000Z,14.90
2022-10-10T23:56:45.860Z,14.90
2022-10-10T23:59:20.732Z,14.90
